createdAt,value
2018-08-03T00:00:17.622Z,6.00
2018-08-03T00:02:45.528Z,5.17
2018-08-03T00:05:13.263Z,6.20
2018-08-03T00:07:41.143Z,6.03
2018-08-03T00:10:08.947Z,5.80
2018-08-03T00:12:36.637Z,5.63
2018-08-03T00:15:05.923Z,5.53
2018-08-03T00:17:33.787Z,5.30
2018-08-03T00:20:01.447Z,5.60
2018-08-03T00:22:29.307Z,5.67
2018-08-03T00:24:57.394Z,6.10
2018-08-03T00:27:25.131Z,6.40
2018-08-03T00:29:52.837Z,5.20
2018-08-03T00:32:20.698Z,5.40
2018-08-03T00:34:48.562Z,5.67
2018-08-03T00:37:16.271Z,6.00
2018-08-03T00:39:44.033Z,5.87
2018-08-03T00:42:11.853Z,6.10
2018-08-03T00:44:39.664Z,5.73
2018-08-03T00:47:07.496Z,6.93
2018-08-03T00:49:35.533Z,5.97
2018-08-03T00:52:03.648Z,5.60
2018-08-03T00:54:31.387Z,6.13
2018-08-03T00:56:59.395Z,5.77
2018-08-03T00:59:27.120Z,6.83
2018-08-03T01:01:55.296Z,6.80
2018-08-03T01:04:22.985Z,5.27
2018-08-03T01:06:50.780Z,4.87
2018-08-03T01:09:20.724Z,5.70
2018-08-03T01:11:48.707Z,5.00
2018-08-03T01:14:16.275Z,6.00
2018-08-03T01:16:44.265Z,6.60
2018-08-03T01:19:13.215Z,6.20
2018-08-03T01:21:42.384Z,5.73
2018-08-03T01:24:10.289Z,5.67
2018-08-03T01:26:37.878Z,5.63
2018-08-03T01:29:05.618Z,6.73
2018-08-03T01:31:33.442Z,6.10
2018-08-03T01:34:01.214Z,6.03
2018-08-03T01:36:28.924Z,6.73
2018-08-03T01:38:56.882Z,7.60
2018-08-03T01:41:24.614Z,7.23
2018-08-03T01:43:52.159Z,7.33
2018-08-03T01:46:19.924Z,7.43
2018-08-03T01:48:47.573Z,6.47
2018-08-03T01:51:15.321Z,6.57
2018-08-03T01:53:43.046Z,5.77
2018-08-03T01:56:11.023Z,5.77
2018-08-03T01:58:38.861Z,6.20
2018-08-03T02:01:07.175Z,6.10
2018-08-03T02:03:34.881Z,5.73
2018-08-03T02:06:02.648Z,6.10
2018-08-03T02:08:30.424Z,6.00
2018-08-03T02:10:58.114Z,6.07
2018-08-03T02:13:25.669Z,5.80
2018-08-03T02:18:27.793Z,6.23
2018-08-03T02:20:55.848Z,6.60
2018-08-03T02:23:23.508Z,6.70
2018-08-03T02:25:51.233Z,6.37
2018-08-03T02:28:18.942Z,5.50
2018-08-03T02:30:46.564Z,6.10
2018-08-03T02:33:14.184Z,5.80
2018-08-03T02:35:41.917Z,6.70
2018-08-03T02:38:09.642Z,5.50
2018-08-03T02:40:37.354Z,6.03
2018-08-03T02:43:05.136Z,6.60
2018-08-03T02:45:32.887Z,6.90
2018-08-03T02:48:00.619Z,6.20
2018-08-03T02:50:28.315Z,6.50
2018-08-03T02:52:55.861Z,6.50
2018-08-03T02:55:23.550Z,6.73
2018-08-03T02:57:51.320Z,5.90
2018-08-03T03:00:18.893Z,6.73
2018-08-03T03:02:46.549Z,6.43
2018-08-03T03:05:14.474Z,6.00
2018-08-03T03:07:42.158Z,6.83
2018-08-03T03:10:09.894Z,7.10
2018-08-03T03:12:37.664Z,6.33
2018-08-03T03:15:05.593Z,6.00
2018-08-03T03:17:33.251Z,6.60
2018-08-03T03:20:01.090Z,5.27
2018-08-03T03:22:28.795Z,6.03
2018-08-03T03:24:56.562Z,6.03
2018-08-03T03:27:24.351Z,6.10
2018-08-03T03:29:52.014Z,6.17
2018-08-03T03:32:19.727Z,6.70
2018-08-03T03:34:47.450Z,6.93
2018-08-03T03:37:15.146Z,7.47
2018-08-03T03:39:42.846Z,6.90
2018-08-03T03:42:10.532Z,6.60
2018-08-03T03:44:38.294Z,6.10
2018-08-03T03:47:06.034Z,5.93
2018-08-03T03:49:33.783Z,6.67
2018-08-03T03:52:01.563Z,5.60
2018-08-03T03:54:29.283Z,6.23
2018-08-03T03:56:57.866Z,6.47
2018-08-03T03:59:25.545Z,7.70
2018-08-03T04:01:53.651Z,6.50
2018-08-03T04:04:21.358Z,6.20
2018-08-03T04:06:49.098Z,7.17
2018-08-03T04:09:16.677Z,7.20
2018-08-03T04:11:44.407Z,6.43
2018-08-03T04:14:12.230Z,6.23
2018-08-03T04:16:40.051Z,6.83
2018-08-03T04:19:07.823Z,6.10
2018-08-03T04:21:35.455Z,7.57
2018-08-03T04:24:03.088Z,6.23
2018-08-03T04:26:30.877Z,6.90
2018-08-03T04:28:58.579Z,6.90
2018-08-03T04:31:26.548Z,6.43
2018-08-03T04:33:54.184Z,7.00
2018-08-03T04:36:21.860Z,7.20
2018-08-03T04:38:49.788Z,6.80
2018-08-03T04:41:18.953Z,7.30
2018-08-03T04:43:46.524Z,6.37
2018-08-03T04:46:14.796Z,7.30
2018-08-03T04:48:43.014Z,6.53
2018-08-03T04:51:10.622Z,7.00
2018-08-03T04:53:38.246Z,6.30
2018-08-03T04:56:06.511Z,6.57
2018-08-03T04:58:34.181Z,6.53
2018-08-03T05:01:02.004Z,7.60
2018-08-03T05:03:29.745Z,6.83
2018-08-03T05:05:57.532Z,6.47
2018-08-03T05:08:25.226Z,6.70
2018-08-03T05:10:52.859Z,7.17
2018-08-03T05:13:20.521Z,6.30
2018-08-03T05:15:48.136Z,6.53
2018-08-03T05:18:15.896Z,7.07
2018-08-03T05:20:43.664Z,6.90
2018-08-03T05:23:11.480Z,7.17
2018-08-03T05:25:39.219Z,6.73
2018-08-03T05:28:09.970Z,7.03
2018-08-03T05:30:37.819Z,6.40
2018-08-03T05:33:05.478Z,6.23
2018-08-03T05:35:33.322Z,7.50
2018-08-03T05:38:00.831Z,6.40
2018-08-03T05:40:28.416Z,6.83
2018-08-03T05:42:56.134Z,7.03
2018-08-03T05:45:23.840Z,6.63
2018-08-03T05:47:51.591Z,6.47
2018-08-03T05:50:19.602Z,6.77
2018-08-03T05:52:47.371Z,6.53
2018-08-03T05:55:15.118Z,6.17
2018-08-03T05:57:42.748Z,5.27
2018-08-03T06:00:10.354Z,5.97
2018-08-03T06:02:38.148Z,6.30
2018-08-03T06:05:06.727Z,5.50
2018-08-03T06:07:34.333Z,5.37
2018-08-03T06:10:02.138Z,5.50
2018-08-03T06:12:29.805Z,5.03
2018-08-03T06:14:57.450Z,5.30
2018-08-03T06:17:25.025Z,5.10
2018-08-03T06:19:52.871Z,5.13
2018-08-03T06:22:20.633Z,4.67
2018-08-03T06:24:48.963Z,5.63
2018-08-03T06:27:16.547Z,4.93
2018-08-03T06:29:44.286Z,4.20
2018-08-03T06:32:11.872Z,3.93
2018-08-03T06:34:39.535Z,4.90
2018-08-03T06:37:07.428Z,4.20
2018-08-03T06:39:35.278Z,4.20
2018-08-03T06:42:02.945Z,3.83
2018-08-03T06:44:30.721Z,3.63
2018-08-03T06:46:58.638Z,4.00
2018-08-03T06:49:26.252Z,5.10
2018-08-03T06:51:54.039Z,4.40
2018-08-03T06:54:21.849Z,3.80
2018-08-03T06:56:49.525Z,3.60
2018-08-03T06:59:17.277Z,4.10
2018-08-03T07:01:45.479Z,3.80
2018-08-03T07:04:13.087Z,3.23
2018-08-03T07:06:40.819Z,3.07
2018-08-03T07:09:10.107Z,4.47
2018-08-03T07:11:38.248Z,4.20
2018-08-03T07:14:06.751Z,3.97
2018-08-03T07:16:34.566Z,3.20
2018-08-03T07:19:02.416Z,4.00
2018-08-03T07:21:30.358Z,3.50
2018-08-03T07:23:58.004Z,3.43
2018-08-03T07:26:25.785Z,3.27
2018-08-03T07:28:53.667Z,3.93
2018-08-03T07:31:21.293Z,3.60
2018-08-03T07:33:49.483Z,3.30
2018-08-03T07:36:17.305Z,3.50
2018-08-03T07:38:45.381Z,3.07
2018-08-03T07:41:13.132Z,3.57
2018-08-03T07:43:40.919Z,3.17
2018-08-03T07:46:09.412Z,2.80
2018-08-03T07:48:36.973Z,2.93
2018-08-03T07:51:04.684Z,2.47
2018-08-03T07:53:32.446Z,3.40
2018-08-03T07:56:00.229Z,2.80
2018-08-03T07:58:28.221Z,3.03
2018-08-03T08:00:56.036Z,2.60
2018-08-03T08:03:23.712Z,2.50
2018-08-03T08:05:51.539Z,2.80
2018-08-03T08:08:19.185Z,2.50
2018-08-03T08:10:47.025Z,2.80
2018-08-03T08:13:14.785Z,3.60
2018-08-03T08:15:43.021Z,2.93
2018-08-03T08:18:10.893Z,2.90
2018-08-03T08:20:38.496Z,3.20
2018-08-03T08:23:06.405Z,2.80
2018-08-03T08:25:34.143Z,2.90
2018-08-03T08:28:01.936Z,3.17
2018-08-03T08:30:29.671Z,3.80
2018-08-03T08:32:57.313Z,2.60
2018-08-03T08:35:25.024Z,2.50
2018-08-03T08:37:52.630Z,2.40
2018-08-03T08:40:20.398Z,2.57
2018-08-03T08:42:48.289Z,3.00
2018-08-03T08:45:15.949Z,2.60
2018-08-03T08:47:43.562Z,2.30
2018-08-03T08:50:11.136Z,2.90
2018-08-03T08:52:39.160Z,2.67
2018-08-03T08:55:06.882Z,2.47
2018-08-03T08:57:34.667Z,2.60
2018-08-03T09:00:02.448Z,3.23
2018-08-03T09:02:30.278Z,2.73
2018-08-03T09:04:58.178Z,2.45
2018-08-03T09:07:25.966Z,2.70
2018-08-03T09:09:53.783Z,2.80
2018-08-03T09:12:21.594Z,2.40
2018-08-03T09:22:11.043Z,2.60
2018-08-03T09:24:39.002Z,2.60
2018-08-03T09:27:06.906Z,3.43
2018-08-03T09:29:35.457Z,2.67
2018-08-03T09:39:24.705Z,3.10
2018-08-03T09:49:14.359Z,3.20
2018-08-03T10:28:33.518Z,2.63
2018-08-03T10:31:01.427Z,2.50
2018-08-03T10:33:29.268Z,2.70
2018-08-03T10:35:57.035Z,2.57
2018-08-03T10:38:24.855Z,2.90
2018-08-03T11:17:44.152Z,2.80
2018-08-03T12:38:43.083Z,2.95
2018-08-03T13:00:48.673Z,2.45
2018-08-03T13:25:21.102Z,2.60
2018-08-03T13:44:58.395Z,3.00
2018-08-03T14:04:35.734Z,3.00
2018-08-03T14:07:03.616Z,2.90
2018-08-03T14:09:31.270Z,3.07
2018-08-03T14:11:58.905Z,2.80
2018-08-03T14:14:26.836Z,2.80
2018-08-03T14:16:54.769Z,2.83
2018-08-03T14:19:22.459Z,2.37
2018-08-03T14:21:50.270Z,3.10
2018-08-03T14:24:18.022Z,2.97
2018-08-03T14:26:45.838Z,3.00
2018-08-03T14:29:13.547Z,2.90
2018-08-03T14:31:41.338Z,3.37
2018-08-03T14:34:09.076Z,3.10
2018-08-03T14:36:36.988Z,2.97
2018-08-03T14:39:07.135Z,2.97
2018-08-03T14:41:34.960Z,2.70
2018-08-03T14:44:02.759Z,3.23
2018-08-03T14:46:30.416Z,3.13
2018-08-03T14:48:58.689Z,3.13
2018-08-03T14:51:26.424Z,3.53
2018-08-03T14:53:54.104Z,3.20
2018-08-03T14:56:21.742Z,2.77
2018-08-03T14:58:49.325Z,2.70
2018-08-03T15:01:17.083Z,3.00
2018-08-03T15:03:44.786Z,2.37
2018-08-03T15:06:12.751Z,3.40
2018-08-03T15:08:40.515Z,2.60
2018-08-03T15:11:08.829Z,2.70
2018-08-03T15:13:36.497Z,3.47
2018-08-03T15:16:04.390Z,2.53
2018-08-03T15:18:32.836Z,2.80
2018-08-03T15:21:00.533Z,2.20
2018-08-03T15:23:28.182Z,3.20
2018-08-03T15:25:56.088Z,3.03
2018-08-03T15:28:23.728Z,2.83
2018-08-03T15:30:51.591Z,2.43
2018-08-03T15:33:19.990Z,2.93
2018-08-03T15:35:47.679Z,2.77
2018-08-03T15:38:15.514Z,2.77
2018-08-03T15:40:43.162Z,3.00
2018-08-03T15:43:11.814Z,2.50
2018-08-03T15:45:39.499Z,2.77
2018-08-03T15:48:07.107Z,3.07
2018-08-03T15:50:34.693Z,2.73
2018-08-03T15:53:04.194Z,2.77
2018-08-03T15:55:31.867Z,2.43
2018-08-03T15:57:59.426Z,3.20
2018-08-03T16:00:27.115Z,3.03
2018-08-03T16:02:54.749Z,3.10
2018-08-03T16:05:22.491Z,3.07
2018-08-03T16:07:50.205Z,2.90
2018-08-03T16:10:18.650Z,2.80
2018-08-03T16:12:46.365Z,2.70
2018-08-03T16:15:14.094Z,2.50
2018-08-03T16:17:41.950Z,3.20
2018-08-03T16:20:09.799Z,2.80
2018-08-03T16:22:37.730Z,2.77
2018-08-03T16:25:05.950Z,2.73
2018-08-03T16:27:33.744Z,2.80
2018-08-03T16:30:01.441Z,2.93
2018-08-03T16:32:29.390Z,2.73
2018-08-03T16:34:57.039Z,2.90
2018-08-03T16:37:24.749Z,3.43
2018-08-03T16:39:52.571Z,3.07
2018-08-03T16:42:20.342Z,3.20
2018-08-03T16:44:49.825Z,2.90
2018-08-03T16:47:17.540Z,2.40
2018-08-03T16:49:45.486Z,3.50
2018-08-03T16:52:13.642Z,2.80
2018-08-03T16:54:41.260Z,3.37
2018-08-03T16:57:08.873Z,3.27
2018-08-03T16:59:36.652Z,3.40
2018-08-03T17:02:04.730Z,2.80
2018-08-03T17:04:32.330Z,2.70
2018-08-03T17:07:00.151Z,2.80
2018-08-03T17:09:27.774Z,2.87
2018-08-03T17:11:55.490Z,4.10
2018-08-03T17:14:28.605Z,3.00
2018-08-03T17:16:56.596Z,2.43
2018-08-03T17:19:24.214Z,3.00
2018-08-03T17:21:52.036Z,3.33
2018-08-03T17:24:22.161Z,3.57
2018-08-03T17:26:50.109Z,3.40
2018-08-03T17:29:22.109Z,5.07
2018-08-03T17:31:49.911Z,3.23
2018-08-03T17:34:17.562Z,3.13
2018-08-03T17:36:45.285Z,2.33
2018-08-03T17:39:12.920Z,3.50
2018-08-03T17:41:40.867Z,3.17
2018-08-03T17:44:08.792Z,3.50
2018-08-03T17:46:36.525Z,3.10
2018-08-03T17:49:04.507Z,3.43
2018-08-03T17:51:32.464Z,3.70
2018-08-03T17:54:00.172Z,3.60
2018-08-03T17:56:27.922Z,3.20
2018-08-03T17:58:55.756Z,3.20
2018-08-03T18:01:23.664Z,4.07
2018-08-03T18:03:51.582Z,3.93
2018-08-03T18:16:08.810Z,4.00
2018-08-03T18:30:53.074Z,5.00
2018-08-03T18:33:30.041Z,5.40
2018-08-03T18:35:57.842Z,5.15
2018-08-03T18:38:25.583Z,5.40
2018-08-03T18:40:53.378Z,5.47
2018-08-03T18:45:48.888Z,4.97
2018-08-03T18:48:16.497Z,5.47
2018-08-03T18:50:44.191Z,5.30
2018-08-03T18:53:12.025Z,5.13
2018-08-03T18:55:39.890Z,4.77
2018-08-03T18:58:07.623Z,4.83
2018-08-03T19:00:35.442Z,5.03
2018-08-03T19:03:03.262Z,4.30
2018-08-03T19:05:31.237Z,4.90
2018-08-03T19:07:58.892Z,4.53
2018-08-03T19:10:27.222Z,4.57
2018-08-03T19:12:54.954Z,4.53
2018-08-03T19:15:22.798Z,4.60
2018-08-03T19:17:57.088Z,4.17
2018-08-03T19:20:24.718Z,4.57
2018-08-03T19:22:52.487Z,4.57
2018-08-03T19:25:20.190Z,4.80
2018-08-03T19:27:48.089Z,5.00
2018-08-03T19:30:15.706Z,5.33
2018-08-03T19:32:43.461Z,5.27
2018-08-03T19:35:11.227Z,4.60
2018-08-03T19:37:39.666Z,5.50
2018-08-03T19:40:07.963Z,5.30
2018-08-03T19:42:35.616Z,5.00
2018-08-03T19:45:03.650Z,5.80
2018-08-03T19:47:31.278Z,5.00
2018-08-03T19:49:58.910Z,5.60
2018-08-03T19:52:26.766Z,5.70
2018-08-03T19:54:54.600Z,5.77
2018-08-03T19:57:22.398Z,6.93
2018-08-03T19:59:50.534Z,5.70
2018-08-03T20:02:18.902Z,6.80
2018-08-03T20:04:46.578Z,5.63
2018-08-03T20:07:14.542Z,5.90
2018-08-03T20:09:42.218Z,6.17
2018-08-03T20:12:09.899Z,5.83
2018-08-03T20:14:37.544Z,5.90
2018-08-03T20:17:05.289Z,6.90
2018-08-03T20:19:33.015Z,5.57
2018-08-03T20:22:00.800Z,6.23
2018-08-03T20:24:28.575Z,6.30
2018-08-03T20:26:56.319Z,6.33
2018-08-03T20:29:24.166Z,5.53
2018-08-03T20:31:52.025Z,6.40
2018-08-03T20:34:20.073Z,6.17
2018-08-03T20:36:48.678Z,5.47
2018-08-03T20:39:16.382Z,6.00
2018-08-03T20:41:44.238Z,6.10
2018-08-03T20:44:11.893Z,6.23
2018-08-03T20:46:40.045Z,5.70
2018-08-03T20:49:07.903Z,6.27
2018-08-03T20:51:35.777Z,5.83
2018-08-03T20:54:03.799Z,5.43
2018-08-03T20:56:31.763Z,6.00
2018-08-03T20:58:59.582Z,5.80
2018-08-03T21:01:27.499Z,5.80
2018-08-03T21:03:55.103Z,5.27
2018-08-03T21:06:22.826Z,5.80
2018-08-03T21:08:50.750Z,6.70
2018-08-03T21:11:18.654Z,5.27
2018-08-03T21:13:46.511Z,5.13
2018-08-03T21:16:14.452Z,5.33
2018-08-03T21:18:42.215Z,4.83
2018-08-03T21:23:44.259Z,4.90
2018-08-03T21:26:12.148Z,6.07
2018-08-03T21:28:39.770Z,5.00
2018-08-03T21:31:07.481Z,5.33
2018-08-03T21:33:35.166Z,5.67
2018-08-03T21:36:03.024Z,4.50
2018-08-03T21:38:30.960Z,5.50
2018-08-03T21:40:58.933Z,4.90
2018-08-03T21:43:26.609Z,4.87
2018-08-03T21:45:54.426Z,5.40
2018-08-03T21:48:22.607Z,4.97
2018-08-03T21:50:50.380Z,5.27
2018-08-03T21:53:18.152Z,6.13
2018-08-03T21:55:45.842Z,5.60
2018-08-03T21:58:13.422Z,6.33
2018-08-03T22:00:41.142Z,5.80
2018-08-03T22:03:09.039Z,5.57
2018-08-03T22:05:36.808Z,5.77
2018-08-03T22:08:04.694Z,5.90
2018-08-03T22:10:32.285Z,5.17
2018-08-03T22:12:59.840Z,5.10
2018-08-03T22:15:27.648Z,5.77
2018-08-03T22:17:55.390Z,4.77
2018-08-03T22:20:23.868Z,5.73
2018-08-03T22:22:51.494Z,5.87
2018-08-03T22:25:19.246Z,4.87
2018-08-03T22:27:46.987Z,5.27
2018-08-03T22:30:14.657Z,5.20
2018-08-03T22:32:42.271Z,4.53
2018-08-03T22:35:09.873Z,5.00
2018-08-03T22:37:37.474Z,5.23
2018-08-03T22:40:05.330Z,5.60
2018-08-03T22:42:33.093Z,4.90
2018-08-03T22:45:00.659Z,4.80
2018-08-03T22:47:28.339Z,5.17
2018-08-03T22:49:56.361Z,5.40
2018-08-03T22:52:24.050Z,5.20
2018-08-03T22:54:51.642Z,5.60
2018-08-03T22:57:19.264Z,6.60
2018-08-03T22:59:47.157Z,7.53
2018-08-03T23:02:14.757Z,7.33
2018-08-03T23:04:42.454Z,7.80
2018-08-03T23:07:10.220Z,8.10
2018-08-03T23:09:38.200Z,8.00
2018-08-03T23:12:06.272Z,8.60
2018-08-03T23:14:33.927Z,7.30
2018-08-03T23:17:01.814Z,8.13
2018-08-03T23:19:29.529Z,6.90
2018-08-03T23:21:57.254Z,7.17
2018-08-03T23:24:24.932Z,6.53
2018-08-03T23:26:52.572Z,8.00
2018-08-03T23:29:20.396Z,7.70
2018-08-03T23:31:48.843Z,6.53
2018-08-03T23:34:17.465Z,7.53
2018-08-03T23:36:45.132Z,7.50
2018-08-03T23:39:12.742Z,6.87
2018-08-03T23:41:41.070Z,7.17
2018-08-03T23:44:08.795Z,6.70
2018-08-03T23:46:36.540Z,6.37
2018-08-03T23:49:04.206Z,6.37
2018-08-03T23:51:31.998Z,8.13
2018-08-03T23:53:59.605Z,6.87
2018-08-03T23:56:27.348Z,8.00
2018-08-03T23:58:54.950Z,7.20
